Terminal Aerodrome Forecast
Issued by NWS Pendleton, OR

Home | Current Version | Previous Version | Text Only | Print | Product List | Glossary On
Versions: 1 2 3 4 5 6 7 8 9 10 11 12 13 14 15 16 17 18 19 20 21 22
000
FTUS46 KPDT 241731
TAFPDT
TAF
KPDT 241731Z 2418/2518 26018G27KT P6SM VCSH BKN035 BKN045
     FM242100 27020G30KT P6SM BKN050 BKN150
     FM250300 25018G27KT P6SM VCSH BKN050 OVC150=

USA.gov is the U.S. government's official web portal to all federal, state and local government web resources and services.